Time;durP1;ratioP1;P1;durP2;ratioP2;P2;SDS_P1;SDS_P2;PMS_P1;PMS_P2;Temp;Humidity;BMP_temperature;BMP_pressure;BME280_temperature;BME280_humidity;BME280_pressure;Samples;Min_cycle;Max_cycle;Signal;HPM_P1;HPM_P2
2022/09/09 00:02:19;;;;;;;6.93;3.58;;;15.10;99.90;;;;;;4924967;28;20043;-77
2022/09/09 00:08:47;;;;;;;6.25;2.85;;;15.10;99.90;;;;;;5015001;28;20042;-73
2022/09/09 00:11:26;;;;;;;4.45;2.90;;;15.10;99.90;;;;;;5042650;28;20041;-74
2022/09/09 00:14:25;;;;;;;5.63;3.40;;;15.00;99.90;;;;;;5047683;28;20376;-73
2022/09/09 00:17:43;;;;;;;9.80;3.63;;;15.00;99.90;;;;;;5048460;28;20037;-73
2022/09/09 00:21:07;;;;;;;5.32;3.13;;;15.00;99.90;;;;;;5004572;28;20067;-73
2022/09/09 00:23:55;;;;;;;5.55;3.13;;;15.00;99.90;;;;;;5045810;28;20114;-72
2022/09/09 00:26:30;;;;;;;4.50;3.13;;;14.90;99.90;;;;;;5029742;28;20043;-72
2022/09/09 00:29:11;;;;;;;5.95;3.10;;;14.90;99.90;;;;;;5046311;28;20475;-72
2022/09/09 00:31:38;;;;;;;5.80;3.45;;;14.90;99.90;;;;;;5028802;28;20051;-72
2022/09/09 00:34:16;;;;;;;5.40;3.53;;;14.90;99.90;;;;;;5041912;28;20037;-72
2022/09/09 00:36:45;;;;;;;5.18;3.50;;;14.90;99.90;;;;;;5046140;28;20052;-73
2022/09/09 00:43:13;;;;;;;6.57;3.05;;;14.90;99.90;;;;;;5036829;28;20045;-74
2022/09/09 00:50:15;;;;;;;5.45;3.10;;;14.80;99.90;;;;;;5005383;28;20049;-75
2022/09/09 00:53:37;;;;;;;5.80;3.03;;;14.80;99.90;;;;;;5017571;28;20471;-74
2022/09/09 00:56:14;;;;;;;6.68;3.08;;;14.80;99.90;;;;;;5040641;28;20037;-73
2022/09/09 00:59:28;;;;;;;;;;;;;;;;;;;;;
2022/09/09 01:02:20;;;;;;;6.80;3.30;;;14.70;99.90;;;;;;5034806;28;20060;-73
2022/09/09 01:05:14;;;;;;;5.35;3.22;;;14.70;99.90;;;;;;5024490;28;20499;-73
2022/09/09 01:08:14;;;;;;;5.05;2.90;;;14.70;99.90;;;;;;5041403;28;20386;-73
2022/09/09 01:10:57;;;;;;;5.35;2.83;;;14.70;99.90;;;;;;4926359;28;20378;-75
2022/09/09 01:14:03;;;;;;;4.68;2.97;;;14.70;99.90;;;;;;4844725;28;20459;-75
2022/09/09 01:17:18;;;;;;;5.75;3.13;;;14.70;99.90;;;;;;4865013;28;20769;-77
2022/09/09 01:20:26;;;;;;;5.93;2.90;;;14.80;99.90;;;;;;4884253;28;20406;-74
2022/09/09 01:23:21;;;;;;;4.68;2.15;;;14.70;99.90;;;;;;5048553;28;20475;-72
2022/09/09 01:26:25;;;;;;;7.55;2.72;;;14.80;99.90;;;;;;5048918;28;20044;-71
2022/09/09 01:28:52;;;;;;;4.90;2.70;;;14.70;99.90;;;;;;5036259;28;20370;-72
2022/09/09 01:31:44;;;;;;;5.65;2.92;;;14.80;99.90;;;;;;5041853;28;20048;-72
2022/09/09 01:34:19;;;;;;;5.20;2.40;;;14.80;99.90;;;;;;5041163;28;20534;-74
2022/09/09 01:37:41;;;;;;;4.55;2.80;;;14.80;99.90;;;;;;4908336;22;20163;-76
2022/09/09 01:40:08;;;;;;;4.45;2.40;;;14.80;99.90;;;;;;4986381;28;20579;-74
2022/09/09 01:42:34;;;;;;;4.25;2.65;;;14.80;99.90;;;;;;5041743;28;20041;-74
2022/09/09 01:45:01;;;;;;;4.75;2.53;;;14.80;99.90;;;;;;4880177;28;20461;-73
2022/09/09 01:47:30;;;;;;;4.63;2.58;;;14.80;99.90;;;;;;4868176;28;20215;-74
2022/09/09 01:49:57;;;;;;;5.80;2.70;;;14.80;99.90;;;;;;4868356;28;20879;-74
2022/09/09 01:52:26;;;;;;;5.68;2.70;;;14.90;99.90;;;;;;4851255;28;20562;-74
2022/09/09 01:54:53;;;;;;;5.80;2.55;;;14.80;99.90;;;;;;4849721;28;20439;-73
2022/09/09 01:57:30;;;;;;;5.35;2.55;;;14.80;99.90;;;;;;4868014;28;20557;-75
2022/09/09 02:00:11;;;;;;;4.60;2.75;;;14.80;99.90;;;;;;5040578;28;20048;-74
2022/09/09 02:03:05;;;;;;;4.13;2.60;;;14.80;99.90;;;;;;5037937;28;20079;-74
2022/09/09 02:05:42;;;;;;;4.68;2.35;;;14.80;99.90;;;;;;5048394;28;20025;-74
2022/09/09 02:08:11;;;;;;;4.78;2.60;;;14.80;99.90;;;;;;5041940;28;20107;-75
2022/09/09 02:11:13;;;;;;;4.22;2.60;;;14.80;99.90;;;;;;5039484;28;20086;-74
2022/09/09 02:13:40;;;;;;;6.75;3.10;;;14.80;99.90;;;;;;5044729;28;20522;-75
2022/09/09 02:16:17;;;;;;;6.75;2.78;;;14.80;99.90;;;;;;5043232;28;20395;-72
2022/09/09 02:19:01;;;;;;;4.72;2.95;;;14.80;99.90;;;;;;5021715;28;20036;-72
2022/09/09 02:21:30;;;;;;;5.68;3.08;;;14.80;99.90;;;;;;5039907;28;20072;-72
2022/09/09 02:24:00;;;;;;;4.32;2.78;;;14.80;99.90;;;;;;5023032;28;20044;-72
2022/09/09 02:26:27;;;;;;;5.90;3.22;;;14.90;99.90;;;;;;5041602;28;20522;-72
2022/09/09 02:28:57;;;;;;;5.47;3.30;;;14.80;99.90;;;;;;5047929;28;20084;-72
2022/09/09 02:31:25;;;;;;;6.20;3.65;;;14.80;99.90;;;;;;5030996;28;20065;-72
2022/09/09 02:33:57;;;;;;;5.30;3.35;;;14.80;99.90;;;;;;4935251;28;20072;-77
2022/09/09 02:36:31;;;;;;;6.63;4.10;;;14.80;99.90;;;;;;4852285;28;20377;-77
2022/09/09 02:38:58;;;;;;;6.80;3.80;;;14.80;99.90;;;;;;4841621;28;20300;-70
2022/09/09 02:41:32;;;;;;;6.35;3.47;;;14.70;99.90;;;;;;5012207;28;20131;-71
2022/09/09 02:43:58;;;;;;;6.50;3.75;;;14.70;99.90;;;;;;5013454;28;20041;-70
2022/09/09 02:46:33;;;;;;;5.47;3.58;;;14.70;99.90;;;;;;5036842;28;20540;-70
2022/09/09 02:49:09;;;;;;;5.18;3.28;;;14.70;99.90;;;;;;5035714;28;20051;-70
2022/09/09 02:51:39;;;;;;;6.60;3.53;;;14.70;99.90;;;;;;5027072;28;20138;-70
2022/09/09 02:54:22;;;;;;;5.55;3.85;;;14.70;99.90;;;;;;5029026;28;20190;-70
2022/09/09 02:57:11;;;;;;;4.85;3.33;;;14.80;99.90;;;;;;5037424;28;20053;-71
2022/09/09 02:59:38;;;;;;;9.60;4.10;;;14.70;99.90;;;;;;5028753;28;20083;-69
2022/09/09 03:02:04;;;;;;;6.43;3.28;;;14.70;99.90;;;;;;5040234;28;20048;-70
2022/09/09 03:04:31;;;;;;;5.40;3.63;;;14.70;99.90;;;;;;5044463;28;20044;-75
2022/09/09 03:06:58;;;;;;;6.72;4.20;;;14.70;99.90;;;;;;5031991;28;20222;-70
2022/09/09 03:09:25;;;;;;;7.88;3.67;;;14.70;99.90;;;;;;5029760;28;20050;-69
2022/09/09 03:11:52;;;;;;;7.40;3.72;;;14.70;99.90;;;;;;5027006;28;20114;-69
2022/09/09 03:14:21;;;;;;;8.18;4.45;;;14.60;99.90;;;;;;5033457;28;20033;-69
2022/09/09 03:16:48;;;;;;;7.15;4.43;;;14.70;99.90;;;;;;5015383;28;20048;-69
2022/09/09 03:19:13;;;;;;;5.72;3.65;;;14.70;99.90;;;;;;5039104;28;20033;-69
2022/09/09 03:21:39;;;;;;;5.05;3.65;;;14.60;99.90;;;;;;5034648;28;20163;-69
2022/09/09 03:24:06;;;;;;;8.73;4.28;;;14.60;99.90;;;;;;5040115;28;20037;-70
2022/09/09 03:26:32;;;;;;;7.55;4.18;;;14.60;99.90;;;;;;5041067;28;20048;-69
2022/09/09 03:29:00;;;;;;;5.90;3.97;;;14.60;99.90;;;;;;5041432;28;20426;-69
2022/09/09 03:31:29;;;;;;;6.90;4.18;;;14.60;99.90;;;;;;5040853;28;20049;-69
2022/09/09 03:33:57;;;;;;;5.95;3.85;;;14.60;99.90;;;;;;5042326;28;20052;-70
2022/09/09 03:36:22;;;;;;;7.97;4.10;;;14.60;99.90;;;;;;5032785;28;20068;-69
2022/09/09 03:38:48;;;;;;;7.95;4.07;;;14.60;99.90;;;;;;5045648;28;20595;-69
2022/09/09 03:41:14;;;;;;;5.88;3.92;;;14.70;99.90;;;;;;5041671;28;20036;-68
2022/09/09 03:43:41;;;;;;;7.18;3.72;;;14.70;99.90;;;;;;5042317;28;20047;-69
2022/09/09 03:46:06;;;;;;;6.65;4.30;;;14.70;99.90;;;;;;5034917;28;20087;-69
2022/09/09 03:48:32;;;;;;;11.60;4.68;;;14.70;99.90;;;;;;5037114;28;20041;-69
2022/09/09 03:51:00;;;;;;;8.20;4.38;;;14.70;99.90;;;;;;5031762;28;20040;-69
2022/09/09 03:53:26;;;;;;;5.30;3.30;;;14.70;99.90;;;;;;5042417;28;20085;-68
2022/09/09 03:55:59;;;;;;;9.63;4.53;;;14.60;99.90;;;;;;5045758;28;20454;-69
2022/09/09 03:58:26;;;;;;;7.10;4.07;;;14.70;99.90;;;;;;5046165;28;20053;-69
2022/09/09 04:01:01;;;;;;;9.18;4.10;;;14.70;99.90;;;;;;5040617;28;20057;-69
2022/09/09 04:03:28;;;;;;;9.00;3.80;;;14.70;99.90;;;;;;5041148;28;20083;-69
2022/09/09 04:05:55;;;;;;;9.30;4.47;;;14.70;99.90;;;;;;5041758;28;20040;-69
2022/09/09 04:08:21;;;;;;;6.60;3.42;;;14.70;99.90;;;;;;5039085;28;20183;-69
2022/09/09 04:10:47;;;;;;;;;;;14.70;99.90;;;;;;5040091;28;20044;-69
2022/09/09 04:13:15;;;;;;;7.95;3.72;;;14.70;99.90;;;;;;5040292;28;20283;-69
2022/09/09 04:15:40;;;;;;;5.63;4.00;;;14.70;99.90;;;;;;5041083;28;20037;-69
2022/09/09 04:18:06;;;;;;;6.13;3.72;;;14.70;99.90;;;;;;5040677;28;20048;-69
2022/09/09 04:20:32;;;;;;;5.82;3.65;;;14.70;99.90;;;;;;5039543;28;20080;-69
2022/09/09 04:22:58;;;;;;;6.90;3.75;;;14.70;99.90;;;;;;5038372;28;20653;-69
2022/09/09 04:25:24;;;;;;;7.85;3.60;;;14.70;99.90;;;;;;5037145;28;20044;-69
2022/09/09 04:27:54;;;;;;;8.57;3.97;;;14.70;99.90;;;;;;5036526;28;20049;-69
2022/09/09 04:30:20;;;;;;;8.98;3.38;;;14.70;99.90;;;;;;5023348;28;20033;-69
2022/09/09 04:32:46;;;;;;;6.63;3.85;;;14.70;99.90;;;;;;5002004;28;20400;-69
2022/09/09 04:35:12;;;;;;;8.93;4.03;;;14.70;99.90;;;;;;5039232;28;20056;-69
2022/09/09 04:37:38;;;;;;;4.90;3.22;;;14.80;99.90;;;;;;5039053;28;20080;-69
2022/09/09 04:40:04;;;;;;;6.32;3.33;;;14.80;99.90;;;;;;5039674;28;20076;-69
2022/09/09 04:42:29;;;;;;;;;;;14.80;99.90;;;;;;5025543;28;20037;-69
2022/09/09 04:44:55;;;;;;;6.57;2.92;;;14.80;99.90;;;;;;5031661;28;20007;-69
2022/09/09 04:47:21;;;;;;;6.88;3.33;;;14.80;99.90;;;;;;5038268;28;20315;-69
2022/09/09 04:49:47;;;;;;;6.20;2.97;;;14.80;99.90;;;;;;5041824;28;20047;-69
2022/09/09 04:52:13;;;;;;;7.55;3.80;;;14.80;99.90;;;;;;5032873;28;20287;-69
2022/09/09 04:54:38;;;;;;;6.00;3.50;;;14.80;99.90;;;;;;5041979;28;20525;-68
2022/09/09 04:57:04;;;;;;;5.80;3.42;;;14.80;99.90;;;;;;5038066;28;20045;-69
2022/09/09 04:59:30;;;;;;;6.45;3.95;;;14.80;99.90;;;;;;5043552;28;20048;-70
2022/09/09 05:01:56;;;;;;;6.20;3.88;;;14.80;99.90;;;;;;5039901;28;20041;-69
2022/09/09 05:04:22;;;;;;;7.38;4.50;;;14.80;99.90;;;;;;5040675;28;20136;-68
2022/09/09 05:06:48;;;;;;;10.70;4.35;;;14.80;99.90;;;;;;5028694;28;20458;-69
2022/09/09 05:09:13;;;;;;;9.18;3.90;;;14.90;99.90;;;;;;5035308;28;20048;-69
2022/09/09 05:11:39;;;;;;;6.88;4.22;;;14.80;99.90;;;;;;5033492;28;20033;-69
2022/09/09 05:14:05;;;;;;;8.52;4.50;;;14.90;99.90;;;;;;5040383;28;20056;-69
2022/09/09 05:16:31;;;;;;;7.88;4.10;;;14.90;99.90;;;;;;5034346;28;20451;-69
2022/09/09 05:18:57;;;;;;;8.50;5.10;;;14.90;99.90;;;;;;5038857;28;20509;-68
2022/09/09 05:21:26;;;;;;;7.18;4.53;;;14.90;99.90;;;;;;5039464;28;20041;-68
2022/09/09 05:23:51;;;;;;;8.25;4.40;;;14.90;99.90;;;;;;5039142;28;20052;-68
2022/09/09 05:26:19;;;;;;;6.30;4.07;;;14.90;99.90;;;;;;5034810;28;20063;-68
2022/09/09 05:28:46;;;;;;;8.13;4.68;;;14.90;99.90;;;;;;5032241;28;20055;-68
2022/09/09 05:31:13;;;;;;;6.50;4.50;;;14.90;99.90;;;;;;5037274;28;20098;-68
2022/09/09 05:33:45;;;;;;;7.55;4.55;;;14.90;99.90;;;;;;5040415;28;20041;-68
2022/09/09 05:36:13;;;;;;;7.90;4.45;;;14.90;99.90;;;;;;5030792;28;20510;-67
2022/09/09 05:38:40;;;;;;;8.00;4.82;;;14.90;99.90;;;;;;5039283;28;20068;-68
2022/09/09 05:41:06;;;;;;;7.68;4.70;;;14.90;99.90;;;;;;5039355;28;20052;-68
2022/09/09 05:43:32;;;;;;;10.63;4.55;;;14.90;99.90;;;;;;5033716;28;20025;-67
2022/09/09 05:46:09;;;;;;;9.63;5.05;;;14.90;99.90;;;;;;5031605;28;20037;-67
2022/09/09 05:48:37;;;;;;;9.65;4.47;;;14.90;99.90;;;;;;5041743;28;20081;-68
2022/09/09 05:51:04;;;;;;;7.85;4.45;;;14.90;99.90;;;;;;5033488;28;20037;-69
2022/09/09 05:53:36;;;;;;;6.80;4.68;;;14.90;99.90;;;;;;5034168;28;20037;-68
2022/09/09 05:56:26;;;;;;;6.93;4.15;;;14.90;99.90;;;;;;5042855;28;20371;-68
2022/09/09 05:58:53;;;;;;;10.35;4.60;;;14.90;99.90;;;;;;5036316;28;20120;-68
2022/09/09 06:01:31;;;;;;;7.07;4.00;;;14.90;99.90;;;;;;5038110;28;20403;-68
2022/09/09 06:03:57;;;;;;;6.18;3.90;;;14.90;99.90;;;;;;5035956;28;20098;-68
2022/09/09 06:06:26;;;;;;;7.88;4.18;;;15.00;99.90;;;;;;5036817;28;20038;-68
2022/09/09 06:08:54;;;;;;;6.60;3.78;;;14.90;99.90;;;;;;5033702;28;20443;-68
2022/09/09 06:11:24;;;;;;;6.38;3.97;;;15.00;99.90;;;;;;5038254;28;20053;-68
2022/09/09 06:13:54;;;;;;;9.32;4.38;;;15.00;99.90;;;;;;5034698;28;20044;-69
2022/09/09 06:16:26;;;;;;;8.18;4.00;;;15.00;99.90;;;;;;5032912;28;20664;-69
2022/09/09 06:18:53;;;;;;;10.50;4.88;;;15.00;99.90;;;;;;5014708;28;20045;-69
2022/09/09 06:21:21;;;;;;;8.38;3.95;;;15.00;99.90;;;;;;5033735;28;20120;-68
2022/09/09 06:23:51;;;;;;;7.85;5.03;;;15.00;99.90;;;;;;5040572;28;20029;-68
2022/09/09 06:26:46;;;;;;;8.05;4.65;;;15.00;99.90;;;;;;5030426;28;20090;-68
2022/09/09 06:29:14;;;;;;;11.18;5.32;;;15.10;99.90;;;;;;5039010;28;20124;-68
2022/09/09 06:31:41;;;;;;;10.80;4.88;;;15.10;99.90;;;;;;5035309;28;20124;-69
2022/09/09 06:34:08;;;;;;;10.35;4.38;;;15.10;99.90;;;;;;5032873;28;20472;-68
2022/09/09 06:36:36;;;;;;;8.50;4.85;;;15.10;99.90;;;;;;5034830;28;20235;-68
2022/09/09 06:39:02;;;;;;;10.13;5.28;;;15.10;99.90;;;;;;5021776;28;20045;-68
2022/09/09 06:41:31;;;;;;;8.52;4.25;;;15.10;99.90;;;;;;5040881;28;20037;-67
2022/09/09 06:43:56;;;;;;;7.35;4.63;;;15.10;99.90;;;;;;5032833;28;20041;-68
2022/09/09 06:46:27;;;;;;;7.38;4.95;;;15.10;99.90;;;;;;5040374;28;20136;-68
2022/09/09 06:48:55;;;;;;;6.85;4.00;;;15.20;99.90;;;;;;5038985;28;20132;-68
2022/09/09 06:51:22;;;;;;;10.05;4.95;;;15.20;99.90;;;;;;5035663;28;20041;-68
2022/09/09 06:53:54;;;;;;;9.85;4.85;;;15.20;99.90;;;;;;5025645;28;20045;-68
2022/09/09 06:56:23;;;;;;;9.68;4.28;;;15.20;99.90;;;;;;5034484;28;20051;-68
2022/09/09 06:58:51;;;;;;;7.18;4.18;;;15.20;99.90;;;;;;5031822;28;20050;-68
2022/09/09 07:01:20;;;;;;;7.05;4.43;;;15.20;99.90;;;;;;5034847;28;20049;-68
2022/09/09 07:03:51;;;;;;;9.68;4.28;;;15.20;99.90;;;;;;5041169;28;20084;-68
2022/09/09 07:06:21;;;;;;;6.15;3.50;;;15.30;99.90;;;;;;5036480;28;20050;-68
2022/09/09 07:08:51;;;;;;;7.05;3.83;;;15.30;99.90;;;;;;5036019;28;20121;-68
2022/09/09 07:11:17;;;;;;;8.10;3.78;;;15.30;99.90;;;;;;5033312;28;20056;-68
2022/09/09 07:13:43;;;;;;;5.13;3.83;;;15.30;99.90;;;;;;5041595;28;20500;-68
2022/09/09 07:16:15;;;;;;;5.43;3.78;;;15.30;99.90;;;;;;5035506;28;20032;-68
2022/09/09 07:18:41;;;;;;;7.03;3.88;;;15.40;99.90;;;;;;5037255;28;20114;-68
2022/09/09 07:21:09;;;;;;;5.22;3.20;;;15.40;99.90;;;;;;5044722;28;20506;-68
2022/09/09 07:23:35;;;;;;;7.30;3.60;;;15.40;99.90;;;;;;5039405;28;20041;-68
2022/09/09 07:26:02;;;;;;;6.97;3.63;;;15.40;99.90;;;;;;5038089;28;20045;-68
2022/09/09 07:28:29;;;;;;;4.82;3.00;;;15.40;99.90;;;;;;5037953;28;20116;-68
2022/09/09 07:31:02;;;;;;;7.20;3.15;;;15.40;99.90;;;;;;5039423;28;20043;-68
2022/09/09 07:33:33;;;;;;;7.07;3.40;;;15.50;99.90;;;;;;5038146;28;20041;-68
2022/09/09 07:36:12;;;;;;;6.13;3.28;;;15.50;99.90;;;;;;5042200;28;20080;-68
2022/09/09 07:38:46;;;;;;;6.10;3.22;;;15.60;99.90;;;;;;5064748;22;20132;-74
2022/09/09 07:41:15;;;;;;;5.57;3.30;;;15.60;99.90;;;;;;5054231;28;20119;-73
2022/09/09 07:43:43;;;;;;;4.90;3.03;;;15.60;99.90;;;;;;5036382;28;20033;-74
2022/09/09 07:46:10;;;;;;;5.15;3.00;;;15.70;99.90;;;;;;5038198;28;20120;-73
2022/09/09 07:48:36;;;;;;;7.60;3.17;;;15.70;99.90;;;;;;5044901;28;20076;-73
2022/09/09 07:51:12;;;;;;;4.55;2.97;;;15.80;99.90;;;;;;5042529;28;20041;-73
2022/09/09 07:53:39;;;;;;;6.25;3.00;;;15.80;99.90;;;;;;5041106;28;20466;-73
2022/09/09 07:56:09;;;;;;;5.97;2.95;;;15.80;99.90;;;;;;5042444;28;20119;-73
2022/09/09 07:58:38;;;;;;;8.38;2.92;;;15.80;99.90;;;;;;5042924;28;20214;-73
2022/09/09 08:01:10;;;;;;;10.27;3.50;;;15.90;99.90;;;;;;5041226;28;20041;-73
2022/09/09 08:03:36;;;;;;;7.20;2.80;;;15.90;99.90;;;;;;5070867;28;20163;-73
2022/09/09 08:06:08;;;;;;;4.68;2.78;;;15.90;99.90;;;;;;5041242;28;20040;-73
2022/09/09 08:08:35;;;;;;;6.93;3.03;;;16.00;99.90;;;;;;5037711;28;20085;-74
2022/09/09 08:11:12;;;;;;;7.18;2.35;;;16.10;99.90;;;;;;5042752;28;20163;-73
2022/09/09 08:13:39;;;;;;;4.03;2.75;;;16.10;99.90;;;;;;5044582;28;20135;-73
2022/09/09 08:16:17;;;;;;;4.55;2.95;;;16.10;99.90;;;;;;5050008;28;20142;-73
2022/09/09 08:18:44;;;;;;;7.13;2.80;;;16.20;99.90;;;;;;5043964;28;20071;-73
2022/09/09 08:21:17;;;;;;;6.43;2.13;;;16.20;99.90;;;;;;5048577;28;20036;-74
2022/09/09 08:23:45;;;;;;;7.55;3.00;;;16.30;99.90;;;;;;5046386;28;20064;-73
2022/09/09 08:26:15;;;;;;;6.93;2.60;;;16.30;99.90;;;;;;5044476;28;20455;-73
2022/09/09 08:28:42;;;;;;;6.00;2.40;;;16.40;99.90;;;;;;5042860;28;20045;-73
2022/09/09 08:31:16;;;;;;;6.75;3.00;;;16.40;99.90;;;;;;5043441;28;20498;-73
2022/09/09 08:33:45;;;;;;;6.10;3.15;;;16.50;99.90;;;;;;5054510;28;20045;-73
2022/09/09 08:36:14;;;;;;;6.03;3.30;;;16.50;99.90;;;;;;5042077;28;20068;-73
2022/09/09 08:38:41;;;;;;;6.45;3.30;;;16.50;99.90;;;;;;5040348;28;20128;-73
2022/09/09 08:41:34;;;;;;;9.10;3.55;;;16.50;99.90;;;;;;5041930;28;20033;-73
2022/09/09 08:44:10;;;;;;;4.47;2.90;;;16.60;99.90;;;;;;5042650;28;20053;-73
2022/09/09 08:46:51;;;;;;;6.72;3.17;;;16.70;99.90;;;;;;5044073;28;20564;-73
2022/09/09 08:49:39;;;;;;;4.63;2.63;;;16.70;99.90;;;;;;5034409;28;20462;-73
2022/09/09 08:52:15;;;;;;;5.30;3.08;;;16.80;99.90;;;;;;5042437;28;20044;-73
2022/09/09 08:54:41;;;;;;;4.97;2.63;;;16.90;99.90;;;;;;5044958;28;20090;-73
2022/09/09 08:57:15;;;;;;;6.13;3.55;;;16.90;99.90;;;;;;5042406;28;20406;-73
2022/09/09 08:59:40;;;;;;;5.28;2.58;;;16.90;99.90;;;;;;5043395;28;20053;-73
2022/09/09 09:02:18;;;;;;;5.90;2.83;;;17.00;99.90;;;;;;5044953;28;20394;-73
2022/09/09 09:05:07;;;;;;;7.68;2.47;;;17.00;99.90;;;;;;5042270;28;20056;-74
2022/09/09 09:07:52;;;;;;;4.57;2.58;;;17.10;99.90;;;;;;5035691;28;20523;-73
2022/09/09 09:10:39;;;;;;;6.18;2.30;;;17.20;99.90;;;;;;5038173;28;20329;-73
2022/09/09 09:13:20;;;;;;;6.07;2.20;;;17.30;99.90;;;;;;5022121;28;20522;-73
2022/09/09 09:15:52;;;;;;;4.85;2.17;;;17.40;99.90;;;;;;5042922;28;20049;-73
2022/09/09 09:18:18;;;;;;;7.72;2.15;;;17.50;99.90;;;;;;5042725;28;20119;-73
2022/09/09 09:21:05;;;;;;;5.18;2.45;;;17.50;99.90;;;;;;5048341;28;20136;-73
2022/09/09 09:23:45;;;;;;;8.18;2.10;;;17.50;99.90;;;;;;5042041;28;20057;-73
2022/09/09 09:26:11;;;;;;;5.13;1.70;;;17.50;99.90;;;;;;5040886;28;20037;-73
2022/09/09 09:28:39;;;;;;;3.58;2.25;;;17.60;99.90;;;;;;5046508;28;20056;-73
2022/09/09 09:31:13;;;;;;;7.32;2.03;;;17.60;99.90;;;;;;5040911;28;20203;-73
2022/09/09 09:33:52;;;;;;;5.35;1.70;;;17.60;99.90;;;;;;5040306;28;20045;-73
2022/09/09 09:36:19;;;;;;;6.80;1.92;;;17.60;99.90;;;;;;5036537;28;20364;-73
2022/09/09 09:39:03;;;;;;;3.72;1.90;;;17.60;99.90;;;;;;5037800;28;20036;-73
2022/09/09 09:41:49;;;;;;;3.85;1.40;;;17.70;99.90;;;;;;5045829;28;20057;-73
2022/09/09 09:44:30;;;;;;;6.07;2.20;;;17.70;99.90;;;;;;5025311;28;20041;-73
2022/09/09 09:47:26;;;;;;;3.63;2.05;;;17.60;99.90;;;;;;5041195;28;20043;-73
2022/09/09 09:49:59;;;;;;;4.05;2.33;;;17.60;99.90;;;;;;5038793;28;20052;-73
2022/09/09 09:52:30;;;;;;;5.30;1.92;;;17.60;99.90;;;;;;5034757;28;20190;-73
2022/09/09 09:54:59;;;;;;;2.78;1.35;;;17.60;99.90;;;;;;5045341;28;20162;-73
2022/09/09 09:57:29;;;;;;;5.85;1.48;;;17.70;99.90;;;;;;5038598;28;20045;-73
2022/09/09 10:00:12;;;;;;;3.42;1.27;;;17.70;99.90;;;;;;5040102;28;20048;-73
2022/09/09 10:02:40;;;;;;;3.65;1.60;;;17.70;99.90;;;;;;5035860;28;20045;-73
2022/09/09 10:05:15;;;;;;;2.58;1.23;;;17.80;99.90;;;;;;5039725;28;20041;-73
2022/09/09 10:07:43;;;;;;;4.20;1.30;;;17.80;99.90;;;;;;5039935;28;20095;-72
2022/09/09 10:10:26;;;;;;;5.68;1.45;;;17.90;99.90;;;;;;5036140;28;20036;-72
2022/09/09 10:13:17;;;;;;;2.47;1.13;;;18.00;99.90;;;;;;5044213;28;20631;-72
2022/09/09 10:16:06;;;;;;;7.95;1.40;;;18.00;99.90;;;;;;5040794;28;20447;-72
2022/09/09 10:18:31;;;;;;;2.78;1.40;;;18.10;99.90;;;;;;5041229;28;20037;-71
2022/09/09 10:21:20;;;;;;;6.43;1.30;;;18.00;99.90;;;;;;5040084;28;20355;-72
2022/09/09 10:23:52;;;;;;;5.85;1.52;;;18.00;99.90;;;;;;5044494;28;20088;-71
2022/09/09 10:27:05;;;;;;;4.40;1.48;;;18.00;99.90;;;;;;5040806;28;20036;-72
2022/09/09 10:29:30;;;;;;;3.63;1.33;;;18.00;99.90;;;;;;5003036;28;20572;-72
2022/09/09 10:32:10;;;;;;;3.58;1.08;;;18.00;99.90;;;;;;5042921;28;20039;-71
2022/09/09 10:34:54;;;;;;;7.57;1.40;;;18.00;99.90;;;;;;5037026;28;20041;-72
2022/09/09 10:37:23;;;;;;;5.45;1.25;;;18.10;99.90;;;;;;5035994;28;20279;-72
2022/09/09 10:39:55;;;;;;;3.95;0.80;;;18.20;99.90;;;;;;5041269;28;20258;-72
2022/09/09 10:42:28;;;;;;;1.92;0.90;;;18.50;99.90;;;;;;5036721;28;20063;-72
2022/09/09 10:45:02;;;;;;;4.50;1.13;;;18.70;99.90;;;;;;5040186;28;20430;-72
2022/09/09 10:47:40;;;;;;;7.20;1.33;;;18.90;99.90;;;;;;5037655;28;20064;-72
2022/09/09 10:50:26;;;;;;;3.00;1.02;;;19.00;99.90;;;;;;5034173;28;20073;-72
2022/09/09 10:53:15;;;;;;;2.58;1.20;;;19.10;99.90;;;;;;5038763;28;20039;-71
2022/09/09 10:55:50;;;;;;;7.65;1.30;;;19.10;99.90;;;;;;5045729;28;20052;-71
2022/09/09 10:58:34;;;;;;;5.10;1.13;;;19.30;99.90;;;;;;5042430;28;20044;-71
2022/09/09 11:01:09;;;;;;;2.30;0.90;;;19.40;99.90;;;;;;5039258;28;20033;-71
2022/09/09 11:03:39;;;;;;;4.82;1.35;;;19.50;99.90;;;;;;5038445;28;20037;-71
2022/09/09 11:06:12;;;;;;;5.07;0.98;;;19.70;99.90;;;;;;5041517;28;20241;-71
2022/09/09 11:08:39;;;;;;;3.08;1.10;;;19.80;99.90;;;;;;5041742;28;20037;-72
2022/09/09 11:11:33;;;;;;;4.10;1.20;;;19.80;99.90;;;;;;5036913;28;20507;-72
2022/09/09 11:14:17;;;;;;;5.53;1.27;;;19.80;99.90;;;;;;5032195;28;20037;-72
2022/09/09 11:16:50;;;;;;;4.68;1.30;;;19.60;99.90;;;;;;5044785;28;20502;-71
2022/09/09 11:19:26;;;;;;;3.65;1.00;;;19.60;99.90;;;;;;5038873;28;20507;-72
2022/09/09 11:21:54;;;;;;;3.00;0.88;;;19.40;99.90;;;;;;5042617;28;20049;-71
2022/09/09 11:24:22;;;;;;;2.90;1.00;;;19.40;99.90;;;;;;5038982;28;20394;-71
2022/09/09 11:26:57;;;;;;;4.90;1.20;;;19.40;99.90;;;;;;5042355;28;20549;-72
2022/09/09 11:29:58;;;;;;;2.38;0.80;;;19.40;99.90;;;;;;5042643;28;20102;-71
2022/09/09 11:32:29;;;;;;;2.83;1.02;;;19.40;99.90;;;;;;5038600;28;20167;-72
2022/09/09 11:35:13;;;;;;;7.35;0.98;;;19.40;99.90;;;;;;5041763;28;20462;-72
2022/09/09 11:38:01;;;;;;;5.10;1.00;;;19.40;99.90;;;;;;5036657;28;20120;-72
2022/09/09 11:40:30;;;;;;;3.55;0.73;;;19.30;99.90;;;;;;5040247;28;20045;-72
2022/09/09 11:43:42;;;;;;;5.93;1.20;;;19.30;99.90;;;;;;5045896;28;20562;-71
2022/09/09 11:46:09;;;;;;;10.35;0.98;;;19.20;99.90;;;;;;5026068;28;20383;-71
2022/09/09 11:48:38;;;;;;;2.33;1.30;;;19.00;99.90;;;;;;5043977;28;20048;-71
2022/09/09 11:51:26;;;;;;;4.57;1.30;;;19.00;99.90;;;;;;5045664;28;20576;-72
2022/09/09 11:54:01;;;;;;;7.63;1.95;;;18.80;99.90;;;;;;5062932;28;20041;-71
2022/09/09 11:56:43;;;;;;;2.78;0.98;;;18.80;99.90;;;;;;5034186;28;20072;-71
2022/09/09 11:59:24;;;;;;;2.75;1.08;;;18.70;99.90;;;;;;5038591;28;20124;-71
2022/09/09 12:02:08;;;;;;;5.47;1.30;;;18.70;99.90;;;;;;5038445;28;20548;-71
2022/09/09 12:04:42;;;;;;;6.85;1.52;;;18.70;99.90;;;;;;5041142;28;20230;-72
2022/09/09 12:07:11;;;;;;;8.13;1.27;;;18.70;99.90;;;;;;5044442;28;20040;-71
2022/09/09 12:09:52;;;;;;;6.90;1.40;;;18.80;99.90;;;;;;5039048;28;20099;-71
2022/09/09 12:12:35;;;;;;;6.07;1.33;;;19.00;99.90;;;;;;5034100;28;20029;-71
2022/09/09 12:15:07;;;;;;;5.60;1.42;;;19.10;99.90;;;;;;5027277;28;20038;-72
2022/09/09 12:17:53;;;;;;;5.97;1.75;;;19.20;99.90;;;;;;5041186;28;20510;-71
2022/09/09 12:20:30;;;;;;;4.45;1.20;;;19.30;99.90;;;;;;5042713;28;20082;-72
2022/09/09 12:23:26;;;;;;;3.83;1.50;;;19.30;99.90;;;;;;5043600;28;20516;-71
2022/09/09 12:26:01;;;;;;;2.80;1.48;;;19.30;99.90;;;;;;5044230;28;20183;-71
2022/09/09 12:28:40;;;;;;;3.10;1.23;;;19.30;99.90;;;;;;5045280;28;20045;-71
2022/09/09 12:31:07;;;;;;;2.80;1.10;;;19.40;99.90;;;;;;5021312;28;20044;-71
2022/09/09 12:33:42;;;;;;;4.57;1.30;;;19.50;99.90;;;;;;5045136;28;20600;-71
2022/09/09 12:36:20;;;;;;;7.55;1.20;;;19.50;99.90;;;;;;5048057;28;20051;-72
2022/09/09 12:38:46;;;;;;;2.50;1.30;;;19.40;99.90;;;;;;5043637;28;20037;-71
2022/09/09 12:41:19;;;;;;;;;;;19.40;99.90;;;;;;5048959;28;20067;-71
2022/09/09 12:43:45;;;;;;;6.40;1.60;;;19.40;99.90;;;;;;5043991;28;19970;-72
2022/09/09 12:46:26;;;;;;;3.83;1.10;;;19.30;99.90;;;;;;5043815;28;20348;-71
2022/09/09 12:48:54;;;;;;;4.05;0.90;;;19.40;99.90;;;;;;5040155;28;20045;-72
2022/09/09 12:51:26;;;;;;;4.65;1.30;;;19.40;99.90;;;;;;5039890;28;20353;-71
2022/09/09 12:53:52;;;;;;;2.05;1.15;;;19.40;99.90;;;;;;5044891;28;20036;-71
2022/09/09 12:56:26;;;;;;;2.42;1.00;;;19.40;99.90;;;;;;5039817;28;20042;-71
2022/09/09 12:58:54;;;;;;;3.25;0.98;;;19.40;99.90;;;;;;5043279;28;20033;-71
2022/09/09 13:01:33;;;;;;;3.08;1.10;;;19.40;99.90;;;;;;5039575;28;20325;-72
2022/09/09 13:03:59;;;;;;;3.53;1.15;;;19.40;99.90;;;;;;5043790;28;20029;-71
2022/09/09 13:06:27;;;;;;;2.75;1.00;;;19.40;99.90;;;;;;5040152;28;20049;-73
2022/09/09 13:08:55;;;;;;;4.15;1.25;;;19.40;99.90;;;;;;5036333;28;20497;-72
2022/09/09 13:11:31;;;;;;;6.10;0.82;;;19.30;99.90;;;;;;5042171;28;20041;-72
2022/09/09 13:13:58;;;;;;;5.32;1.30;;;19.20;99.90;;;;;;5038028;28;20037;-72
2022/09/09 13:16:32;;;;;;;3.47;1.20;;;19.10;99.90;;;;;;5040439;28;20173;-71
2022/09/09 13:19:01;;;;;;;5.40;1.20;;;19.10;99.90;;;;;;5042538;28;20128;-73
2022/09/09 13:21:38;;;;;;;3.75;0.60;;;18.90;99.90;;;;;;5032753;28;20215;-71
2022/09/09 13:24:07;;;;;;;1.95;0.90;;;18.80;99.90;;;;;;5047367;28;20110;-71
2022/09/09 13:26:33;;;;;;;2.78;1.30;;;18.80;99.90;;;;;;5046118;28;20048;-71
2022/09/09 13:29:29;;;;;;;3.83;1.10;;;18.90;99.90;;;;;;5039377;28;20112;-71
2022/09/09 13:32:06;;;;;;;4.38;1.38;;;19.10;99.90;;;;;;5030154;28;20124;-72
2022/09/09 13:34:35;;;;;;;4.28;1.20;;;19.30;99.90;;;;;;5039995;28;20045;-71
2022/09/09 13:39:39;;;;;;;2.75;1.00;;;19.50;99.90;;;;;;5061854;28;20412;-71